Time;durP1;ratioP1;P1;durP2;ratioP2;P2;SDS_P1;SDS_P2;PMS_P1;PMS_P2;Temp;Humidity;BMP_temperature;BMP_pressure;BME280_temperature;BME280_humidity;BME280_pressure;Samples;Min_cycle;Max_cycle;Signal;HPM_P1;HPM_P2
2023/06/12 00:02:17;;;;;;;4.45;3.30;;;;;;;-144.57;100.00;62443.72;5079862;28;20040;-62
2023/06/12 00:04:44;;;;;;;5.22;3.38;;;;;;;-144.57;100.00;62443.72;5088899;28;20222;-62
2023/06/12 00:07:13;;;;;;;6.22;3.55;;;;;;;-144.57;100.00;62443.72;5075854;28;20047;-62
2023/06/12 00:09:39;;;;;;;7.00;3.60;;;;;;;-144.57;100.00;62443.72;5073478;28;20075;-62
2023/06/12 00:12:05;;;;;;;4.72;2.95;;;;;;;-144.57;100.00;62443.72;5080176;28;20039;-62
2023/06/12 00:14:31;;;;;;;5.88;3.53;;;;;;;-144.57;100.00;62443.72;5092866;28;20110;-64
2023/06/12 00:16:57;;;;;;;8.02;3.55;;;;;;;-144.57;100.00;62443.72;5055139;28;20049;-62
2023/06/12 00:19:22;;;;;;;4.78;2.92;;;;;;;-144.57;100.00;62443.72;5081936;28;20463;-63
2023/06/12 00:21:48;;;;;;;6.38;3.22;;;;;;;-144.57;100.00;62443.72;5066020;28;20119;-63
2023/06/12 00:24:14;;;;;;;5.95;3.33;;;;;;;-144.57;100.00;62443.72;5084570;28;20040;-62
2023/06/12 00:26:39;;;;;;;4.78;3.45;;;;;;;-144.57;100.00;62443.72;5072081;28;20040;-62
2023/06/12 00:29:05;;;;;;;5.03;3.28;;;;;;;-144.57;100.00;62443.72;5079269;28;20135;-62
2023/06/12 00:31:30;;;;;;;4.75;3.50;;;;;;;-144.57;100.00;62443.72;5092207;28;20475;-62
2023/06/12 00:33:56;;;;;;;7.15;3.47;;;;;;;-144.57;100.00;62443.72;5092362;28;20072;-62
2023/06/12 00:36:22;;;;;;;5.18;3.40;;;;;;;-144.57;100.00;62443.72;5090881;28;20501;-62
2023/06/12 00:38:48;;;;;;;6.32;3.70;;;;;;;-144.57;100.00;62443.72;5092299;28;20101;-62
2023/06/12 00:41:15;;;;;;;6.38;3.85;;;;;;;-144.57;100.00;62443.72;5083766;28;20032;-62
2023/06/12 00:43:40;;;;;;;5.15;3.40;;;;;;;-144.57;100.00;62443.72;5037424;28;20051;-62
2023/06/12 00:46:06;;;;;;;6.47;3.80;;;;;;;-144.57;100.00;62443.72;5071208;28;20041;-63
2023/06/12 00:48:32;;;;;;;10.65;3.92;;;;;;;-144.57;100.00;62443.72;5070615;28;20040;-62
2023/06/12 00:50:58;;;;;;;5.68;3.30;;;;;;;-144.57;100.00;62443.72;5070401;28;20043;-62
2023/06/12 00:53:25;;;;;;;5.60;3.38;;;;;;;-144.57;100.00;62443.72;5071728;28;20045;-63
2023/06/12 00:55:53;;;;;;;4.68;3.45;;;;;;;-144.57;100.00;62443.72;5070085;28;20040;-60
2023/06/12 00:58:19;;;;;;;6.90;3.60;;;;;;;-144.57;100.00;62443.72;5053896;28;20242;-61
2023/06/12 01:00:48;;;;;;;4.95;3.25;;;;;;;-144.57;100.00;62443.72;5053828;28;20036;-62
2023/06/12 01:03:14;;;;;;;4.60;3.10;;;;;;;-144.57;100.00;62443.72;5053667;28;20510;-64
2023/06/12 01:05:42;;;;;;;6.25;3.50;;;;;;;-144.57;100.00;62443.72;5070295;28;20081;-63
2023/06/12 01:08:23;;;;;;;7.10;3.70;;;;;;;-144.57;100.00;62443.72;5071439;28;20724;-63
2023/06/12 01:11:02;;;;;;;5.78;3.55;;;;;;;-144.57;100.00;62443.72;5070098;28;20055;-62
2023/06/12 01:13:28;;;;;;;4.65;3.33;;;;;;;-144.57;100.00;62443.72;5073849;28;20100;-62
2023/06/12 01:15:55;;;;;;;5.88;3.53;;;;;;;-144.57;100.00;62443.72;5090119;28;20036;-62
2023/06/12 01:18:21;;;;;;;7.20;3.53;;;;;;;-144.57;100.00;62443.72;5089779;28;20109;-62
2023/06/12 01:20:48;;;;;;;7.97;4.22;;;;;;;-144.57;100.00;62443.72;5074446;28;20037;-62
2023/06/12 01:23:36;;;;;;;6.47;3.50;;;;;;;-144.57;100.00;62443.72;5076716;28;20040;-62
2023/06/12 01:26:38;;;;;;;6.47;3.75;;;;;;;-144.57;100.00;62443.72;5090173;28;20040;-63
2023/06/12 01:29:25;;;;;;;6.45;3.78;;;;;;;-144.57;100.00;62443.72;5066956;28;20098;-62
2023/06/12 01:32:05;;;;;;;4.78;3.25;;;;;;;-144.57;100.00;62443.72;5078563;28;20056;-62
2023/06/12 01:34:50;;;;;;;6.57;3.50;;;;;;;-144.57;100.00;62443.72;5090206;28;20136;-63
2023/06/12 01:37:22;;;;;;;5.88;3.53;;;;;;;-144.57;100.00;62443.72;5080811;28;20053;-62
2023/06/12 01:39:55;;;;;;;8.88;3.88;;;;;;;-144.57;100.00;62443.72;5070026;28;20094;-62
2023/06/12 01:42:23;;;;;;;5.72;4.30;;;;;;;-144.57;100.00;62443.72;5069968;28;20045;-62
2023/06/12 01:44:50;;;;;;;7.38;4.40;;;;;;;-144.57;100.00;62443.72;5053358;28;20087;-63
2023/06/12 01:47:16;;;;;;;5.82;3.88;;;;;;;-144.57;100.00;62443.72;5053079;28;20048;-63
2023/06/12 01:49:42;;;;;;;5.85;4.22;;;;;;;-144.57;100.00;62443.72;5064384;28;20116;-63
2023/06/12 01:52:07;;;;;;;5.95;4.15;;;;;;;-144.57;100.00;62443.72;5072156;28;20070;-62
2023/06/12 01:54:33;;;;;;;5.82;3.60;;;;;;;-144.57;100.00;62443.72;5090039;28;20063;-62
2023/06/12 01:57:00;;;;;;;4.97;3.88;;;;;;;-144.57;100.00;62443.72;5089618;28;20048;-62
2023/06/12 01:59:29;;;;;;;5.13;3.72;;;;;;;-144.57;100.00;62443.72;5089956;28;20048;-62
2023/06/12 02:01:55;;;;;;;6.88;4.07;;;;;;;-144.57;100.00;62443.72;5089898;28;20044;-63
2023/06/12 02:04:21;;;;;;;9.75;3.95;;;;;;;-144.57;100.00;62443.72;5089357;28;20044;-62
2023/06/12 02:06:47;;;;;;;4.93;3.58;;;;;;;-144.57;100.00;62443.72;5090989;28;20430;-63
2023/06/12 02:09:12;;;;;;;5.78;3.90;;;;;;;-144.57;100.00;62443.72;5089789;28;20533;-62
2023/06/12 02:11:39;;;;;;;5.50;3.78;;;;;;;-144.57;100.00;62443.72;5087576;28;20578;-63
2023/06/12 02:14:05;;;;;;;9.85;4.15;;;;;;;-144.57;100.00;62443.72;5085224;28;20044;-63
2023/06/12 02:16:32;;;;;;;5.63;3.90;;;;;;;-144.57;100.00;62443.72;5087251;28;20039;-63
2023/06/12 02:18:58;;;;;;;6.68;3.50;;;;;;;-144.57;100.00;62443.72;5086944;28;20046;-63
2023/06/12 02:21:43;;;;;;;8.32;4.50;;;;;;;-144.57;100.00;62443.72;5066321;28;20045;-62
2023/06/12 02:24:09;;;;;;;7.47;3.90;;;;;;;-144.57;100.00;62443.72;5082552;28;20555;-61
2023/06/12 02:26:35;;;;;;;4.55;3.53;;;;;;;-144.57;100.00;62443.72;5086596;28;20044;-63
2023/06/12 02:29:14;;;;;;;4.78;3.80;;;;;;;-144.57;100.00;62443.72;5085529;28;20052;-62
2023/06/12 02:31:44;;;;;;;5.50;3.88;;;;;;;-144.57;100.00;62443.72;5077153;28;20056;-62
2023/06/12 02:34:10;;;;;;;6.72;4.22;;;;;;;-144.57;100.00;62443.72;5075124;28;20460;-63
2023/06/12 02:36:39;;;;;;;5.88;3.60;;;;;;;-144.57;100.00;62443.72;5072570;28;20048;-62
2023/06/12 02:39:07;;;;;;;8.15;4.25;;;;;;;-144.57;100.00;62443.72;5072903;28;20052;-62
2023/06/12 02:41:33;;;;;;;5.90;3.58;;;;;;;-144.57;100.00;62443.72;5072977;28;20051;-63
2023/06/12 02:43:59;;;;;;;5.50;3.70;;;;;;;-144.57;100.00;62443.72;5085119;28;20127;-63
2023/06/12 02:46:24;;;;;;;4.45;3.63;;;;;;;-144.57;100.00;62443.72;5092197;28;20035;-64
2023/06/12 02:48:50;;;;;;;8.02;4.32;;;;;;;-144.57;100.00;62443.72;5092617;28;20105;-62
2023/06/12 02:51:16;;;;;;;5.28;3.60;;;;;;;-144.57;100.00;62443.72;5088849;28;20037;-62
2023/06/12 02:53:41;;;;;;;4.70;3.50;;;;;;;-144.57;100.00;62443.72;5074019;28;20041;-62
2023/06/12 02:56:07;;;;;;;4.38;3.50;;;;;;;-144.57;100.00;62443.72;5072479;28;20508;-63
2023/06/12 02:58:33;;;;;;;5.78;4.05;;;;;;;-144.57;100.00;62443.72;5092837;28;20048;-62
2023/06/12 03:00:59;;;;;;;4.30;3.60;;;;;;;-144.57;100.00;62443.72;5092386;28;20043;-63
2023/06/12 03:03:28;;;;;;;4.40;3.30;;;;;;;-144.57;100.00;62443.72;5092770;28;20040;-62
2023/06/12 03:05:55;;;;;;;5.05;3.30;;;;;;;-144.57;100.00;62443.72;5060099;28;20043;-62
2023/06/12 03:08:20;;;;;;;6.05;3.80;;;;;;;-144.57;100.00;62443.72;5075917;28;20428;-62
2023/06/12 03:10:46;;;;;;;5.20;3.33;;;;;;;-144.57;100.00;62443.72;5093842;28;20043;-63
2023/06/12 03:13:15;;;;;;;8.25;3.70;;;;;;;-144.57;100.00;62443.72;5092580;28;20160;-63
2023/06/12 03:15:41;;;;;;;5.35;3.38;;;;;;;-144.57;100.00;62443.72;5092419;28;20130;-63
2023/06/12 03:18:06;;;;;;;6.78;3.42;;;;;;;-144.57;100.00;62443.72;5072094;28;20536;-62
2023/06/12 03:20:33;;;;;;;6.30;3.58;;;;;;;-144.57;100.00;62443.72;5074016;28;20040;-62
2023/06/12 03:22:59;;;;;;;7.25;3.25;;;;;;;-144.57;100.00;62443.72;5055428;28;20048;-62
2023/06/12 03:25:26;;;;;;;4.18;3.20;;;;;;;-144.57;100.00;62443.72;5073695;28;20055;-62
2023/06/12 03:27:52;;;;;;;5.55;3.30;;;;;;;-144.57;100.00;62443.72;5071949;28;20047;-63
2023/06/12 03:30:17;;;;;;;8.02;3.85;;;;;;;-144.57;100.00;62443.72;5071960;28;20040;-63
2023/06/12 03:32:43;;;;;;;5.03;3.78;;;;;;;-144.57;100.00;62443.72;5078160;28;20394;-63
2023/06/12 03:35:09;;;;;;;4.47;2.90;;;;;;;-144.57;100.00;62443.72;5055301;28;20498;-63
2023/06/12 03:37:38;;;;;;;5.63;3.45;;;;;;;-144.57;100.00;62443.72;5090396;28;20043;-62
2023/06/12 03:40:07;;;;;;;7.55;3.30;;;;;;;-144.57;100.00;62443.72;5091941;28;20048;-63
2023/06/12 03:42:36;;;;;;;7.57;3.58;;;;;;;-144.57;100.00;62443.72;5059003;28;20135;-62
2023/06/12 03:45:02;;;;;;;4.50;2.97;;;;;;;-144.57;100.00;62443.72;5092099;28;20135;-62
2023/06/12 03:47:29;;;;;;;10.82;3.35;;;;;;;-144.57;100.00;62443.72;5092074;28;20042;-63
2023/06/12 03:49:55;;;;;;;6.90;2.97;;;;;;;-144.57;100.00;62443.72;5092117;28;20048;-62
2023/06/12 03:52:21;;;;;;;6.60;3.13;;;;;;;-144.57;100.00;62443.72;5058645;28;20048;-63
2023/06/12 03:54:49;;;;;;;3.80;2.90;;;;;;;-144.57;100.00;62443.72;5091950;28;20097;-63
2023/06/12 03:57:15;;;;;;;4.28;3.10;;;;;;;-144.57;100.00;62443.72;5087416;28;20122;-63
2023/06/12 03:59:41;;;;;;;4.03;2.80;;;;;;;-144.57;100.00;62443.72;5071575;28;20059;-62
2023/06/12 04:02:07;;;;;;;6.15;3.10;;;;;;;-144.57;100.00;62443.72;5084062;28;20036;-63
2023/06/12 04:04:32;;;;;;;5.43;2.97;;;;;;;-144.57;100.00;62443.72;5093177;28;20054;-63
2023/06/12 04:06:59;;;;;;;5.72;2.97;;;;;;;-144.57;100.00;62443.72;5093008;28;20078;-63
2023/06/12 04:09:25;;;;;;;5.03;2.63;;;;;;;-144.57;100.00;62443.72;5081933;28;20506;-62
2023/06/12 04:11:52;;;;;;;2.90;2.22;;;;;;;-144.57;100.00;62443.72;5072701;28;20059;-64
2023/06/12 04:14:17;;;;;;;2.85;2.55;;;;;;;-144.57;100.00;62443.72;5071809;28;20040;-62
2023/06/12 04:16:43;;;;;;;4.80;2.50;;;;;;;-144.57;100.00;62443.72;5083581;28;20054;-64
2023/06/12 04:19:09;;;;;;;5.22;2.83;;;;;;;-144.57;100.00;62443.72;5091359;28;20048;-62
2023/06/12 04:21:36;;;;;;;3.15;2.40;;;;;;;-144.57;100.00;62443.72;5074432;28;20038;-63
2023/06/12 04:24:03;;;;;;;3.25;2.63;;;;;;;-144.57;100.00;62443.72;5091258;28;20056;-62
2023/06/12 04:26:31;;;;;;;3.35;2.22;;;;;;;-144.57;100.00;62443.72;5091311;28;20040;-63
2023/06/12 04:28:57;;;;;;;2.42;2.15;;;;;;;-144.57;100.00;62443.72;5074171;28;20048;-62
2023/06/12 04:31:26;;;;;;;4.22;2.45;;;;;;;-144.57;100.00;62443.72;5073936;28;20035;-63
2023/06/12 04:33:54;;;;;;;3.83;2.40;;;;;;;-144.57;100.00;62443.72;5091267;28;20052;-64
2023/06/12 04:36:22;;;;;;;2.67;2.40;;;;;;;-144.57;100.00;62443.72;5090905;28;20052;-63
2023/06/12 04:38:52;;;;;;;4.40;2.78;;;;;;;-144.57;100.00;62443.72;5055467;28;20048;-63
2023/06/12 04:41:19;;;;;;;4.78;2.20;;;;;;;-144.57;100.00;62443.72;5078617;28;20050;-62
2023/06/12 04:43:48;;;;;;;3.47;2.25;;;;;;;-144.57;100.00;62443.72;5053890;28;20056;-62
2023/06/12 04:46:19;;;;;;;5.72;2.25;;;;;;;-144.57;100.00;62443.72;5089816;28;20629;-62
2023/06/12 04:48:46;;;;;;;3.72;2.28;;;;;;;-144.57;100.00;62443.72;5090872;28;20044;-62
2023/06/12 04:51:13;;;;;;;4.78;2.10;;;;;;;-144.57;100.00;62443.72;5090595;28;20048;-62
2023/06/12 04:53:43;;;;;;;5.95;2.50;;;;;;;-144.57;100.00;62443.72;5070167;28;20087;-62
2023/06/12 04:56:12;;;;;;;3.38;2.17;;;;;;;-144.57;100.00;62443.72;5070117;28;20055;-63
2023/06/12 04:58:41;;;;;;;6.22;2.47;;;;;;;-144.57;100.00;62443.72;5070044;28;20089;-62
2023/06/12 05:01:08;;;;;;;3.83;2.00;;;;;;;-144.57;100.00;62443.72;5090211;28;20047;-62
2023/06/12 05:03:33;;;;;;;7.22;1.95;;;;;;;-144.57;100.00;62443.72;5090567;28;20294;-63
2023/06/12 05:06:02;;;;;;;4.35;2.30;;;;;;;-144.57;100.00;62443.72;5089963;28;20078;-62
2023/06/12 05:08:30;;;;;;;4.07;2.17;;;;;;;-144.57;100.00;62443.72;5090464;28;20054;-62
2023/06/12 05:10:55;;;;;;;2.42;1.98;;;;;;;-144.57;100.00;62443.72;5067735;28;20090;-62
2023/06/12 05:13:21;;;;;;;5.03;1.88;;;;;;;-144.57;100.00;62443.72;5087613;28;20039;-62
2023/06/12 05:15:47;;;;;;;2.55;1.90;;;;;;;-144.57;100.00;62443.72;5080013;28;20033;-63
2023/06/12 05:18:14;;;;;;;3.03;1.90;;;;;;;-144.57;100.00;62443.72;5091400;28;20118;-62
2023/06/12 05:20:40;;;;;;;2.97;1.80;;;;;;;-144.57;100.00;62443.72;5090518;28;20048;-63
2023/06/12 05:23:06;;;;;;;5.93;1.70;;;;;;;-144.57;100.00;62443.72;5090301;28;20104;-63
2023/06/12 05:25:32;;;;;;;3.72;2.13;;;;;;;-144.57;100.00;62443.72;5090467;28;20533;-63
2023/06/12 05:27:59;;;;;;;3.65;1.70;;;;;;;-144.57;100.00;62443.72;5073057;28;20138;-64
2023/06/12 05:30:25;;;;;;;2.75;1.73;;;;;;;-144.57;100.00;62443.72;5075957;28;20203;-63
2023/06/12 05:32:51;;;;;;;4.07;1.98;;;;;;;-144.57;100.00;62443.72;5061508;28;20065;-63
2023/06/12 05:35:17;;;;;;;3.83;2.00;;;;;;;-144.57;100.00;62443.72;5069770;28;20040;-63
2023/06/12 05:37:43;;;;;;;2.10;1.58;;;;;;;-144.57;100.00;62443.72;5088740;28;20125;-62
2023/06/12 05:40:10;;;;;;;2.63;1.80;;;;;;;-144.57;100.00;62443.72;5069592;28;20040;-62
2023/06/12 05:42:36;;;;;;;3.22;1.77;;;;;;;-144.57;100.00;62443.72;5069879;28;20048;-63
2023/06/12 05:45:06;;;;;;;2.67;1.50;;;;;;;-144.57;100.00;62443.72;5076669;28;20051;-63
2023/06/12 05:47:33;;;;;;;3.05;2.40;;;;;;;-144.57;100.00;62443.72;5087335;28;20449;-62
2023/06/12 05:50:00;;;;;;;1.63;1.52;;;;;;;-144.57;100.00;62443.72;5054086;28;20041;-63
2023/06/12 05:52:25;;;;;;;5.20;1.92;;;;;;;-144.57;100.00;62443.72;5065137;28;20123;-63
2023/06/12 05:54:51;;;;;;;6.72;1.80;;;;;;;-144.57;100.00;62443.72;5067553;28;20044;-63
2023/06/12 05:57:18;;;;;;;7.70;2.10;;;;;;;-144.57;100.00;62443.72;5070796;28;20161;-65
2023/06/12 05:59:44;;;;;;;3.33;1.50;;;;;;;-144.57;100.00;62443.72;5086770;28;20032;-63
2023/06/12 06:02:11;;;;;;;2.25;1.30;;;;;;;-144.57;100.00;62443.72;5087806;28;20520;-63
2023/06/12 06:04:37;;;;;;;2.45;1.50;;;;;;;-144.57;100.00;62443.72;5085626;28;20048;-62
2023/06/12 06:07:03;;;;;;;2.60;1.48;;;;;;;-144.57;100.00;62443.72;5073564;28;20039;-62
2023/06/12 06:09:29;;;;;;;1.38;1.23;;;;;;;-144.57;100.00;62443.72;5073298;28;20052;-62
2023/06/12 06:11:55;;;;;;;5.32;1.65;;;;;;;-144.57;100.00;62443.72;5073132;28;20051;-63
2023/06/12 06:14:22;;;;;;;3.72;1.60;;;;;;;-144.57;100.00;62443.72;5073562;28;20047;-62
2023/06/12 06:16:49;;;;;;;4.63;1.63;;;;;;;-144.57;100.00;62443.72;5082487;28;20043;-64
2023/06/12 06:19:15;;;;;;;2.58;1.60;;;;;;;-144.57;100.00;62443.72;5095011;28;20046;-63
2023/06/12 06:21:41;;;;;;;2.70;1.70;;;;;;;-144.57;100.00;62443.72;5076535;28;20474;-63
2023/06/12 06:24:07;;;;;;;2.92;1.45;;;;;;;-144.57;100.00;62443.72;5092765;28;20050;-63
2023/06/12 06:26:33;;;;;;;1.88;1.35;;;;;;;-144.57;100.00;62443.72;5073847;28;20050;-63
2023/06/12 06:28:59;;;;;;;1.55;1.30;;;;;;;-144.57;100.00;62443.72;5074711;28;20410;-64
2023/06/12 06:31:27;;;;;;;7.25;1.95;;;;;;;-144.57;100.00;62443.72;5083480;28;20071;-63
2023/06/12 06:33:53;;;;;;;4.72;1.60;;;;;;;-144.57;100.00;62443.72;5072943;28;20076;-63
2023/06/12 06:36:18;;;;;;;1.90;1.70;;;;;;;-144.57;100.00;62443.72;5089311;28;20517;-64
2023/06/12 06:38:45;;;;;;;7.75;1.63;;;;;;;-144.57;100.00;62443.72;5094500;28;20048;-63
2023/06/12 06:41:10;;;;;;;3.10;1.80;;;;;;;-144.57;100.00;62443.72;5083226;28;20517;-63
2023/06/12 06:43:36;;;;;;;1.52;1.42;;;;;;;-144.57;100.00;62443.72;5072969;28;20040;-63
2023/06/12 06:46:06;;;;;;;4.13;1.30;;;;;;;-144.57;100.00;62443.72;5090435;28;20047;-63
2023/06/12 06:48:32;;;;;;;4.30;1.98;;;;;;;-144.57;100.00;62443.72;5025907;28;20048;-63
2023/06/12 06:51:02;;;;;;;4.00;1.90;;;;;;;-144.57;100.00;62443.72;5072460;28;20639;-64
2023/06/12 06:53:28;;;;;;;2.10;1.50;;;;;;;-144.57;100.00;62443.72;5072945;28;20044;-63
2023/06/12 06:55:54;;;;;;;3.22;1.63;;;;;;;-144.57;100.00;62443.72;5085788;28;20432;-63
2023/06/12 06:58:20;;;;;;;2.67;1.60;;;;;;;-144.57;100.00;62443.72;5073100;28;20047;-63
2023/06/12 07:00:46;;;;;;;8.05;3.13;;;;;;;-144.57;100.00;62443.72;5082844;28;20524;-64
2023/06/12 07:03:12;;;;;;;6.05;1.80;;;;;;;-144.57;100.00;62443.72;5081075;28;20048;-63
2023/06/12 07:05:39;;;;;;;4.15;1.60;;;;;;;-144.57;100.00;62443.72;5073212;28;20510;-63
2023/06/12 07:08:04;;;;;;;1.70;1.40;;;;;;;-144.57;100.00;62443.72;5072228;28;20198;-64
2023/06/12 07:10:34;;;;;;;2.58;1.67;;;;;;;-144.57;100.00;62443.72;5055855;28;20514;-63
2023/06/12 07:13:00;;;;;;;1.73;1.63;;;;;;;-144.57;100.00;62443.72;5073791;28;20043;-64
2023/06/12 07:15:40;;;;;;;2.22;1.40;;;;;;;-144.57;100.00;62443.72;5088941;28;20055;-65
2023/06/12 07:18:06;;;;;;;6.82;1.85;;;;;;;-144.57;100.00;62443.72;5092287;28;20036;-64
2023/06/12 07:20:31;;;;;;;2.63;1.50;;;;;;;-144.57;100.00;62443.72;5094165;28;20048;-64
2023/06/12 07:22:58;;;;;;;2.25;1.50;;;;;;;-144.57;100.00;62443.72;5092206;28;20056;-64
2023/06/12 07:25:23;;;;;;;7.93;2.00;;;;;;;-144.57;100.00;62443.72;5092564;28;20442;-65
2023/06/12 07:27:49;;;;;;;3.05;1.55;;;;;;;-144.57;100.00;62443.72;5092263;28;20046;-64
2023/06/12 07:30:15;;;;;;;3.92;1.95;;;;;;;-144.57;100.00;62443.72;5092363;28;20098;-64
2023/06/12 07:32:41;;;;;;;4.38;1.70;;;;;;;-144.57;100.00;62443.72;5075077;28;20051;-64
2023/06/12 07:35:07;;;;;;;8.18;2.15;;;;;;;-144.57;100.00;62443.72;5092169;28;20048;-65
2023/06/12 07:37:35;;;;;;;3.67;1.70;;;;;;;-144.57;100.00;62443.72;5091982;28;20055;-64
2023/06/12 07:40:04;;;;;;;1.98;1.60;;;;;;;-144.57;100.00;62443.72;5067218;28;20123;-64
2023/06/12 07:42:30;;;;;;;3.35;1.80;;;;;;;-144.57;100.00;62443.72;5089681;28;20086;-65
2023/06/12 07:44:56;;;;;;;8.98;1.77;;;;;;;-144.57;100.00;62443.72;5071738;28;20040;-64
2023/06/12 07:47:22;;;;;;;3.90;1.90;;;;;;;-144.57;100.00;62443.72;5071556;28;20032;-65
2023/06/12 07:49:48;;;;;;;2.08;1.65;;;;;;;-144.57;100.00;62443.72;5071083;28;20080;-63
2023/06/12 07:52:14;;;;;;;5.40;1.92;;;;;;;-144.57;100.00;62443.72;5071247;28;20044;-65
2023/06/12 07:54:40;;;;;;;3.65;1.80;;;;;;;-144.57;100.00;62443.72;5071365;28;20143;-63
2023/06/12 07:57:06;;;;;;;4.03;2.08;;;;;;;-144.57;100.00;62443.72;5072068;28;20051;-64
2023/06/12 07:59:33;;;;;;;4.05;1.77;;;;;;;-144.57;100.00;62443.72;5084052;28;20125;-65
2023/06/12 08:02:02;;;;;;;10.93;1.90;;;;;;;-144.57;100.00;62443.72;5071167;28;20040;-64
2023/06/12 08:04:29;;;;;;;6.45;1.85;;;;;;;-144.57;100.00;62443.72;5084826;28;20102;-64
2023/06/12 08:06:56;;;;;;;4.85;1.92;;;;;;;-144.57;100.00;62443.72;5091535;28;20134;-65
2023/06/12 08:09:26;;;;;;;6.15;2.13;;;;;;;-144.57;100.00;62443.72;5091618;28;20123;-64
2023/06/12 08:11:53;;;;;;;3.40;1.73;;;;;;;-144.57;100.00;62443.72;5074678;28;20055;-64
2023/06/12 08:14:18;;;;;;;3.90;1.58;;;;;;;-144.57;100.00;62443.72;5074549;28;20044;-64
2023/06/12 08:16:46;;;;;;;6.15;1.65;;;;;;;-144.57;100.00;62443.72;5074244;28;20100;-64
2023/06/12 08:19:12;;;;;;;3.67;1.80;;;;;;;-144.57;100.00;62443.72;5091297;28;20399;-65
2023/06/12 08:21:39;;;;;;;1.95;1.60;;;;;;;-144.57;100.00;62443.72;5074188;28;20105;-64
2023/06/12 08:24:10;;;;;;;2.90;1.70;;;;;;;-144.57;100.00;62443.72;5091345;28;20047;-65
2023/06/12 08:26:36;;;;;;;5.25;1.80;;;;;;;-144.57;100.00;62443.72;5091149;28;20112;-65
2023/06/12 08:29:02;;;;;;;3.20;1.67;;;;;;;-144.57;100.00;62443.72;5092195;28;20110;-65
2023/06/12 08:31:33;;;;;;;9.95;2.45;;;;;;;-144.57;100.00;62443.72;5090816;28;20051;-65
2023/06/12 08:33:59;;;;;;;5.47;2.17;;;;;;;-144.57;100.00;62443.72;5090617;28;20040;-64
2023/06/12 08:36:26;;;;;;;4.00;1.50;;;;;;;-144.57;100.00;62443.72;5090884;28;20432;-64
2023/06/12 08:38:52;;;;;;;1.90;1.65;;;;;;;-144.57;100.00;62443.72;5092297;28;20059;-64
2023/06/12 08:41:20;;;;;;;3.75;1.95;;;;;;;-144.57;100.00;62443.72;5083467;28;20562;-64
2023/06/12 08:43:47;;;;;;;3.50;1.65;;;;;;;-144.57;100.00;62443.72;5086380;28;20122;-66
2023/06/12 08:46:16;;;;;;;2.70;1.73;;;;;;;-144.57;100.00;62443.72;5078989;28;20064;-65
2023/06/12 08:48:43;;;;;;;5.30;2.20;;;;;;;-144.57;100.00;62443.72;5090761;28;20044;-67
2023/06/12 08:51:09;;;;;;;5.15;2.25;;;;;;;-144.57;100.00;62443.72;5089429;28;20038;-65
2023/06/12 08:53:35;;;;;;;2.80;1.52;;;;;;;-144.57;100.00;62443.72;5090279;28;20134;-64
2023/06/12 08:56:01;;;;;;;3.22;2.22;;;;;;;-144.57;100.00;62443.72;5090234;28;20439;-65
2023/06/12 08:58:26;;;;;;;2.60;1.80;;;;;;;-144.57;100.00;62443.72;5088932;28;20075;-64
2023/06/12 09:00:52;;;;;;;3.00;1.73;;;;;;;-144.57;100.00;62443.72;5090309;28;20543;-64
2023/06/12 09:03:19;;;;;;;3.38;1.73;;;;;;;-144.57;100.00;62443.72;5092030;28;20040;-65
2023/06/12 09:05:45;;;;;;;4.03;1.95;;;;;;;-144.57;100.00;62443.72;5073630;28;20047;-65
2023/06/12 09:08:11;;;;;;;2.08;1.70;;;;;;;-144.57;100.00;62443.72;5079772;28;20051;-64
2023/06/12 09:10:40;;;;;;;4.95;2.25;;;;;;;-144.57;100.00;62443.72;5071361;28;20399;-65
2023/06/12 09:13:09;;;;;;;3.45;1.70;;;;;;;-144.57;100.00;62443.72;5078443;28;20044;-65
2023/06/12 09:15:37;;;;;;;6.67;1.97;;;;;;;-144.57;100.00;62443.72;5089896;28;20063;-65
2023/06/12 09:18:02;;;;;;;2.75;1.85;;;;;;;-144.57;100.00;62443.72;5078315;28;20044;-65
2023/06/12 09:20:32;;;;;;;2.25;2.05;;;;;;;-144.57;100.00;62443.72;5072805;28;20055;-64
2023/06/12 09:23:00;;;;;;;3.85;1.70;;;;;;;-144.57;100.00;62443.72;5069679;28;20044;-64
2023/06/12 09:25:43;;;;;;;4.60;2.15;;;;;;;-144.57;100.00;62443.72;5074778;28;20048;-66
2023/06/12 09:28:10;;;;;;;3.97;2.20;;;;;;;-144.57;100.00;62443.72;5076136;28;20052;-65
2023/06/12 09:30:40;;;;;;;3.50;1.77;;;;;;;-144.57;100.00;62443.72;5070557;28;20152;-66
2023/06/12 09:33:07;;;;;;;3.90;2.22;;;;;;;-144.57;100.00;62443.72;5094001;28;20051;-66
2023/06/12 09:35:49;;;;;;;6.35;2.95;;;;;;;-144.57;100.00;62443.72;5090062;28;20043;-66
2023/06/12 09:38:15;;;;;;;4.57;2.30;;;;;;;-144.57;100.00;62443.72;5089836;28;20529;-65
2023/06/12 09:40:41;;;;;;;5.18;2.10;;;;;;;-144.57;100.00;62443.72;5089242;28;20157;-64
2023/06/12 09:43:06;;;;;;;3.33;2.10;;;;;;;-144.57;100.00;62443.72;5091194;28;20123;-64
2023/06/12 09:45:32;;;;;;;3.40;2.30;;;;;;;-144.57;100.00;62443.72;5088994;28;20044;-64
2023/06/12 09:47:58;;;;;;;3.00;2.03;;;;;;;-144.57;100.00;62443.72;5078839;28;20113;-63
2023/06/12 09:50:25;;;;;;;7.95;2.38;;;;;;;-144.57;100.00;62443.72;5090143;28;20459;-65
2023/06/12 09:52:54;;;;;;;2.95;1.88;;;;;;;-144.57;100.00;62443.72;5076987;28;20040;-65
2023/06/12 09:55:20;;;;;;;3.63;1.80;;;;;;;-144.57;100.00;62443.72;5069833;28;20117;-66
2023/06/12 09:57:50;;;;;;;6.07;2.20;;;;;;;-144.57;100.00;62443.72;5070637;28;20044;-66
2023/06/12 10:00:16;;;;;;;2.60;1.92;;;;;;;-144.57;100.00;62443.72;5036705;28;20040;-64
2023/06/12 10:03:04;;;;;;;3.55;1.80;;;;;;;-144.57;100.00;62443.72;5053199;28;20041;-66
2023/06/12 10:05:35;;;;;;;6.38;2.38;;;;;;;-144.57;100.00;62443.72;5069995;28;20509;-64
2023/06/12 10:08:03;;;;;;;6.88;2.30;;;;;;;-144.57;100.00;62443.72;5073527;28;20416;-65
2023/06/12 10:10:30;;;;;;;4.43;2.08;;;;;;;-144.57;100.00;62443.72;5091010;28;20131;-64
2023/06/12 10:12:56;;;;;;;2.75;1.98;;;;;;;-144.57;100.00;62443.72;5090632;28;20080;-64
2023/06/12 10:15:24;;;;;;;3.83;2.13;;;;;;;-144.57;100.00;62443.72;5067568;28;20495;-64
2023/06/12 10:17:51;;;;;;;6.13;1.88;;;;;;;-144.57;100.00;62443.72;5087015;28;20278;-64
2023/06/12 10:20:19;;;;;;;3.28;2.10;;;;;;;-144.57;100.00;62443.72;5052974;28;20079;-64
2023/06/12 10:22:46;;;;;;;3.50;2.15;;;;;;;-144.57;100.00;62443.72;5056314;28;20041;-64
2023/06/12 10:25:12;;;;;;;6.85;2.38;;;;;;;-144.57;100.00;62443.72;5082979;28;20414;-64
2023/06/12 10:27:38;;;;;;;3.03;2.00;;;;;;;-144.57;100.00;62443.72;5078255;28;20043;-63
2023/06/12 10:30:09;;;;;;;2.75;1.90;;;;;;;-144.57;100.00;62443.72;5075226;28;20048;-64
2023/06/12 10:32:35;;;;;;;4.38;1.92;;;;;;;-144.57;100.00;62443.72;5090628;28;20394;-63
2023/06/12 10:35:03;;;;;;;9.00;2.05;;;;;;;-144.57;100.00;62443.72;5077328;28;20051;-64
2023/06/12 10:37:43;;;;;;;3.25;1.90;;;;;;;-144.57;100.00;62443.72;5069765;28;20139;-66
2023/06/12 10:40:16;;;;;;;3.78;2.10;;;;;;;-144.57;100.00;62443.72;5079086;28;20040;-64
2023/06/12 10:42:47;;;;;;;7.28;2.70;;;;;;;-144.57;100.00;62443.72;5037095;28;20047;-63
2023/06/12 10:45:13;;;;;;;2.15;1.88;;;;;;;-144.57;100.00;62443.72;5069357;28;20272;-65
2023/06/12 10:47:39;;;;;;;3.17;1.90;;;;;;;-144.57;100.00;62443.72;5070600;28;20044;-64
2023/06/12 10:50:06;;;;;;;2.88;1.88;;;;;;;-144.57;100.00;62443.72;5052623;28;20067;-63
2023/06/12 10:52:32;;;;;;;2.92;1.67;;;;;;;-144.57;100.00;62443.72;5072475;28;20531;-65
2023/06/12 10:55:19;;;;;;;3.95;2.20;;;;;;;-144.57;100.00;62443.72;5074251;28;20044;-64
2023/06/12 10:57:50;;;;;;;8.55;3.20;;;;;;;-144.57;100.00;62443.72;5074177;28;20479;-64
2023/06/12 11:00:17;;;;;;;2.83;2.33;;;;;;;-144.57;100.00;62443.72;5072814;28;20051;-65
2023/06/12 11:02:57;;;;;;;2.45;1.80;;;;;;;-144.57;100.00;62443.72;5072646;28;20036;-64
2023/06/12 11:05:24;;;;;;;2.70;2.40;;;;;;;-144.57;100.00;62443.72;5074192;28;20078;-65
2023/06/12 11:07:50;;;;;;;1.80;1.70;;;;;;;-144.57;100.00;62443.72;5072394;28;20530;-63
2023/06/12 11:10:16;;;;;;;6.57;2.28;;;;;;;-144.57;100.00;62443.72;5072444;28;20052;-63
2023/06/12 11:12:47;;;;;;;3.92;1.83;;;;;;;-144.57;100.00;62443.72;5073750;28;20044;-64